Time;durP1;ratioP1;P1;durP2;ratioP2;P2;SDS_P1;SDS_P2;PMS_P1;PMS_P2;Temp;Humidity;BMP_temperature;BMP_pressure;BME280_temperature;BME280_humidity;BME280_pressure;Samples;Min_cycle;Max_cycle;Signal;HPM_P1;HPM_P2
2022/08/31 00:04:55;;;;;;;0.77;0.77;;;;;;;;;;5090852;28;20273;-50
2022/08/31 00:07:23;;;;;;;0.77;0.77;;;;;;;;;;5090727;28;20247;-49
2022/08/31 00:09:49;;;;;;;0.83;0.73;;;;;;;;;;5091048;28;20215;-49
2022/08/31 00:12:16;;;;;;;0.77;0.77;;;;;;;;;;5090994;28;20650;-49
2022/08/31 00:14:42;;;;;;;0.60;0.60;;;;;;;;;;5091012;28;20199;-49
2022/08/31 00:17:08;;;;;;;1.67;1.00;;;;;;;;;;5091024;28;20292;-49
2022/08/31 00:19:34;;;;;;;0.87;0.87;;;;;;;;;;5091031;28;20207;-49
2022/08/31 00:22:00;;;;;;;2.03;0.80;;;;;;;;;;5091070;28;20302;-49
2022/08/31 00:24:28;;;;;;;0.77;0.77;;;;;;;;;;5091091;28;20532;-49
2022/08/31 00:26:54;;;;;;;0.67;0.67;;;;;;;;;;5090751;28;20191;-49
2022/08/31 00:29:20;;;;;;;0.80;0.80;;;;;;;;;;5091092;28;20248;-49
2022/08/31 00:31:46;;;;;;;0.90;0.80;;;;;;;;;;5090897;28;20290;-48
2022/08/31 00:34:12;;;;;;;1.47;0.63;;;;;;;;;;5091056;28;20202;-49
2022/08/31 00:36:38;;;;;;;0.93;0.80;;;;;;;;;;5090594;28;20237;-49
2022/08/31 00:39:05;;;;;;;0.70;0.70;;;;;;;;;;5090861;28;20206;-49
2022/08/31 00:41:34;;;;;;;0.80;0.80;;;;;;;;;;5090740;28;20228;-49
2022/08/31 00:44:02;;;;;;;1.70;0.90;;;;;;;;;;5090322;28;20207;-48
2022/08/31 00:46:29;;;;;;;1.43;0.90;;;;;;;;;;5089463;28;20218;-49
2022/08/31 00:48:59;;;;;;;1.07;0.80;;;;;;;;;;5090407;28;20203;-48
2022/08/31 00:51:25;;;;;;;0.63;0.63;;;;;;;;;;5090559;28;20205;-48
2022/08/31 00:53:51;;;;;;;1.00;0.90;;;;;;;;;;5094317;28;20206;-49
2022/08/31 00:56:18;;;;;;;1.33;1.10;;;;;;;;;;5094366;28;20269;-48
2022/08/31 00:58:45;;;;;;;1.13;0.97;;;;;;;;;;5093820;28;20195;-48
2022/08/31 01:01:11;;;;;;;0.63;0.63;;;;;;;;;;5094441;28;20293;-49
2022/08/31 01:03:38;;;;;;;1.50;1.00;;;;;;;;;;5094081;28;20342;-49
2022/08/31 01:06:04;;;;;;;1.90;1.07;;;;;;;;;;5094116;28;20195;-48
2022/08/31 01:08:30;;;;;;;0.70;0.70;;;;;;;;;;5094278;28;20272;-49
2022/08/31 01:10:57;;;;;;;2.33;0.90;;;;;;;;;;5094249;28;20256;-49
2022/08/31 01:13:23;;;;;;;1.13;0.90;;;;;;;;;;5094215;28;20565;-48
2022/08/31 01:15:52;;;;;;;1.00;0.90;;;;;;;;;;5093986;28;20247;-49
2022/08/31 01:18:18;;;;;;;1.33;1.03;;;;;;;;;;5094150;28;20199;-49
2022/08/31 01:20:47;;;;;;;2.53;0.80;;;;;;;;;;5093991;28;20191;-48
2022/08/31 01:23:17;;;;;;;1.37;0.73;;;;;;;;;;5093747;28;20718;-49
2022/08/31 01:25:44;;;;;;;1.03;0.90;;;;;;;;;;5093663;28;20195;-48
2022/08/31 01:28:10;;;;;;;0.80;0.80;;;;;;;;;;5093948;28;20199;-48
2022/08/31 01:30:37;;;;;;;0.90;0.90;;;;;;;;;;5093537;28;20281;-48
2022/08/31 01:33:03;;;;;;;1.87;1.10;;;;;;;;;;5092647;28;20568;-48
2022/08/31 01:35:29;;;;;;;1.37;0.93;;;;;;;;;;5093657;28;20726;-49
2022/08/31 01:37:55;;;;;;;1.00;0.90;;;;;;;;;;5093653;28;20268;-49
2022/08/31 01:40:25;;;;;;;2.57;1.50;;;;;;;;;;5093938;28;20195;-48
2022/08/31 01:42:51;;;;;;;2.23;1.20;;;;;;;;;;5093537;28;20622;-48
2022/08/31 01:45:17;;;;;;;1.43;1.10;;;;;;;;;;5093320;28;20525;-48
2022/08/31 01:47:43;;;;;;;1.03;1.03;;;;;;;;;;5093335;28;20561;-48
2022/08/31 01:50:09;;;;;;;2.20;1.03;;;;;;;;;;5093541;28;20249;-48
2022/08/31 01:52:36;;;;;;;0.87;0.87;;;;;;;;;;5093418;28;20191;-49
2022/08/31 01:55:04;;;;;;;1.03;1.00;;;;;;;;;;5093351;28;20195;-48
2022/08/31 01:57:31;;;;;;;1.77;1.00;;;;;;;;;;5093263;28;20259;-47
2022/08/31 01:59:58;;;;;;;1.93;1.30;;;;;;;;;;5093050;28;20302;-48
2022/08/31 02:02:24;;;;;;;1.20;1.10;;;;;;;;;;5093019;28;20613;-48
2022/08/31 02:04:50;;;;;;;1.60;1.10;;;;;;;;;;5092097;28;20300;-48
2022/08/31 02:07:16;;;;;;;6.10;1.30;;;;;;;;;;5092968;28;20234;-48
2022/08/31 02:09:42;;;;;;;2.73;1.00;;;;;;;;;;5093055;28;20202;-49
2022/08/31 02:12:08;;;;;;;2.17;1.40;;;;;;;;;;5092865;28;20203;-48
2022/08/31 02:14:36;;;;;;;2.37;1.40;;;;;;;;;;5092787;28;20561;-48
2022/08/31 02:17:02;;;;;;;5.50;1.53;;;;;;;;;;5092826;28;20301;-48
2022/08/31 02:19:27;;;;;;;1.60;1.40;;;;;;;;;;5092871;28;20226;-48
2022/08/31 02:21:53;;;;;;;2.83;1.20;;;;;;;;;;5092708;28;20203;-48
2022/08/31 02:24:19;;;;;;;1.47;1.30;;;;;;;;;;5092877;28;20606;-49
2022/08/31 02:26:45;;;;;;;2.30;1.43;;;;;;;;;;5092736;28;20231;-48
2022/08/31 02:29:11;;;;;;;2.87;1.20;;;;;;;;;;5092689;28;20201;-49
2022/08/31 02:31:39;;;;;;;2.13;1.27;;;;;;;;;;5092588;28;20248;-48
2022/08/31 02:34:05;;;;;;;2.80;1.50;;;;;;;;;;5092625;28;20242;-49
2022/08/31 02:36:31;;;;;;;3.20;1.50;;;;;;;;;;5092498;28;20768;-48
2022/08/31 02:38:57;;;;;;;3.03;1.70;;;;;;;;;;5092462;28;20195;-48
2022/08/31 02:41:23;;;;;;;2.13;1.40;;;;;;;;;;5092529;28;20283;-48
2022/08/31 02:43:49;;;;;;;2.20;1.70;;;;;;;;;;5092349;28;20274;-48
2022/08/31 02:46:15;;;;;;;2.07;1.37;;;;;;;;;;5092432;28;20197;-48
2022/08/31 02:48:42;;;;;;;1.93;1.40;;;;;;;;;;5092313;28;20281;-49
2022/08/31 02:51:09;;;;;;;1.90;1.50;;;;;;;;;;5092312;28;20195;-49
2022/08/31 02:53:35;;;;;;;2.33;1.40;;;;;;;;;;5092126;28;20293;-49
2022/08/31 02:56:02;;;;;;;2.33;1.53;;;;;;;;;;5092078;28;20230;-47
2022/08/31 02:58:28;;;;;;;1.40;1.30;;;;;;;;;;5092246;28;20278;-48
2022/08/31 03:00:54;;;;;;;2.33;1.70;;;;;;;;;;5091985;28;20190;-48
2022/08/31 03:03:20;;;;;;;1.53;1.40;;;;;;;;;;5092135;28;20199;-47
2022/08/31 03:05:48;;;;;;;1.93;1.60;;;;;;;;;;5092160;28;20191;-48
2022/08/31 03:08:14;;;;;;;3.30;1.40;;;;;;;;;;5092205;28;20769;-48
2022/08/31 03:10:40;;;;;;;2.33;1.60;;;;;;;;;;5091932;28;20282;-47
2022/08/31 03:13:06;;;;;;;2.03;1.60;;;;;;;;;;5092008;28;20653;-48
2022/08/31 03:15:32;;;;;;;1.53;1.43;;;;;;;;;;5091529;28;20279;-48
2022/08/31 03:17:58;;;;;;;5.47;1.43;;;;;;;;;;5091751;28;20306;-47
2022/08/31 03:20:25;;;;;;;2.60;1.50;;;;;;;;;;5091849;28;20221;-47
2022/08/31 03:22:52;;;;;;;3.77;1.93;;;;;;;;;;5091618;28;20199;-47
2022/08/31 03:25:19;;;;;;;1.67;1.50;;;;;;;;;;5091579;28;20664;-47
2022/08/31 03:27:45;;;;;;;2.80;1.77;;;;;;;;;;5091587;28;20644;-47
2022/08/31 03:30:12;;;;;;;3.37;2.00;;;;;;;;;;5091747;28;20234;-47
2022/08/31 03:32:38;;;;;;;4.30;1.80;;;;;;;;;;5091598;28;20199;-47
2022/08/31 03:35:05;;;;;;;2.33;1.93;;;;;;;;;;5091535;28;20202;-47
2022/08/31 03:37:32;;;;;;;2.43;1.80;;;;;;;;;;5091570;28;20228;-47
2022/08/31 03:39:59;;;;;;;2.33;1.87;;;;;;;;;;5091498;28;20602;-48
2022/08/31 03:42:25;;;;;;;3.17;1.90;;;;;;;;;;5091559;28;20213;-48
2022/08/31 03:44:51;;;;;;;2.47;1.50;;;;;;;;;;5091414;28;20240;-49
2022/08/31 03:47:18;;;;;;;1.73;1.50;;;;;;;;;;5091556;28;20187;-48
2022/08/31 03:49:44;;;;;;;3.33;1.70;;;;;;;;;;5091398;28;20198;-48
2022/08/31 03:52:10;;;;;;;1.63;1.53;;;;;;;;;;5091661;28;20252;-48
2022/08/31 03:54:36;;;;;;;1.87;1.40;;;;;;;;;;5091336;28;20714;-48
2022/08/31 03:57:05;;;;;;;1.80;1.43;;;;;;;;;;5091256;28;20646;-48
2022/08/31 03:59:31;;;;;;;2.30;1.50;;;;;;;;;;5091175;28;20206;-48
2022/08/31 04:01:57;;;;;;;2.07;1.40;;;;;;;;;;5091318;28;20191;-48
2022/08/31 04:04:23;;;;;;;1.70;1.40;;;;;;;;;;5089920;28;20199;-48
2022/08/31 04:06:49;;;;;;;3.13;1.50;;;;;;;;;;5091086;28;20581;-48
2022/08/31 04:09:15;;;;;;;2.27;1.77;;;;;;;;;;5091134;28;20205;-48
2022/08/31 04:11:41;;;;;;;1.40;1.30;;;;;;;;;;5091152;28;20195;-49
2022/08/31 04:14:09;;;;;;;2.80;1.40;;;;;;;;;;5091153;28;20661;-48
2022/08/31 04:16:36;;;;;;;1.40;1.30;;;;;;;;;;5091034;28;20227;-48
2022/08/31 04:19:02;;;;;;;1.60;1.40;;;;;;;;;;5091111;28;20663;-48
2022/08/31 04:21:30;;;;;;;1.20;1.10;;;;;;;;;;5091094;28;20294;-48
2022/08/31 04:23:56;;;;;;;1.73;1.20;;;;;;;;;;5091170;28;20199;-48
2022/08/31 04:26:23;;;;;;;1.40;1.10;;;;;;;;;;5091227;28;20627;-49
2022/08/31 04:28:50;;;;;;;2.67;1.50;;;;;;;;;;5095275;28;20203;-48
2022/08/31 04:31:17;;;;;;;1.77;1.30;;;;;;;;;;5095246;28;20235;-47
2022/08/31 04:33:44;;;;;;;1.30;1.20;;;;;;;;;;5094758;28;20264;-48
2022/08/31 04:36:11;;;;;;;2.60;1.50;;;;;;;;;;5094987;28;20226;-49
2022/08/31 04:38:37;;;;;;;1.70;1.60;;;;;;;;;;5095058;28;20275;-49
2022/08/31 04:41:04;;;;;;;1.60;1.50;;;;;;;;;;5094794;28;20202;-49
2022/08/31 04:43:30;;;;;;;3.37;1.60;;;;;;;;;;5094611;28;20199;-49
2022/08/31 04:45:56;;;;;;;1.70;1.30;;;;;;;;;;5092686;28;20243;-48
2022/08/31 04:48:24;;;;;;;1.60;1.50;;;;;;;;;;5093833;28;20214;-48
2022/08/31 04:50:50;;;;;;;1.57;1.40;;;;;;;;;;5094319;28;20219;-50
2022/08/31 04:53:16;;;;;;;1.93;1.20;;;;;;;;;;5094679;28;20237;-49
2022/08/31 04:55:42;;;;;;;1.40;1.30;;;;;;;;;;5094470;28;20203;-48
2022/08/31 04:58:08;;;;;;;1.47;1.37;;;;;;;;;;5093954;28;20206;-48
2022/08/31 05:00:36;;;;;;;1.73;1.30;;;;;;;;;;5094234;28;20198;-48
2022/08/31 05:03:02;;;;;;;1.30;1.20;;;;;;;;;;5094510;28;20189;-48
2022/08/31 05:05:29;;;;;;;1.97;1.43;;;;;;;;;;5093682;28;20229;-48
2022/08/31 05:07:55;;;;;;;1.47;1.20;;;;;;;;;;5094048;28;20311;-48
2022/08/31 05:10:23;;;;;;;1.57;1.33;;;;;;;;;;5094406;28;20190;-48
2022/08/31 05:12:50;;;;;;;1.57;1.30;;;;;;;;;;5094156;28;20206;-48
2022/08/31 05:15:17;;;;;;;1.40;1.30;;;;;;;;;;5093244;28;20691;-48
2022/08/31 05:17:43;;;;;;;2.77;1.50;;;;;;;;;;5093693;28;20246;-48
2022/08/31 05:20:09;;;;;;;1.40;1.30;;;;;;;;;;5093803;28;20221;-47
2022/08/31 05:22:36;;;;;;;2.63;1.80;;;;;;;;;;5093875;28;20194;-48
2022/08/31 05:25:05;;;;;;;1.67;1.53;;;;;;;;;;5094050;28;20736;-48
2022/08/31 05:27:31;;;;;;;1.80;1.47;;;;;;;;;;5093911;28;20346;-49
2022/08/31 05:29:57;;;;;;;1.67;1.50;;;;;;;;;;5092925;28;20241;-49
2022/08/31 05:32:23;;;;;;;1.90;1.70;;;;;;;;;;5093710;28;20239;-48
2022/08/31 05:34:50;;;;;;;1.70;1.40;;;;;;;;;;5092754;28;20267;-48
2022/08/31 05:37:16;;;;;;;2.77;1.50;;;;;;;;;;5093653;28;20257;-48
2022/08/31 05:39:44;;;;;;;1.60;1.50;;;;;;;;;;5093381;28;20218;-48
2022/08/31 05:42:14;;;;;;;1.63;1.50;;;;;;;;;;5093437;28;20248;-48
2022/08/31 05:44:40;;;;;;;1.70;1.40;;;;;;;;;;5093474;28;20199;-48
2022/08/31 05:47:06;;;;;;;2.20;1.60;;;;;;;;;;5093252;28;20289;-48
2022/08/31 05:49:32;;;;;;;3.30;2.00;;;;;;;;;;5093495;28;20202;-48
2022/08/31 05:51:58;;;;;;;2.13;1.60;;;;;;;;;;5093168;28;20199;-47
2022/08/31 05:54:24;;;;;;;2.40;1.73;;;;;;;;;;5093506;28;20643;-49
2022/08/31 05:56:52;;;;;;;2.77;1.90;;;;;;;;;;5093177;28;20229;-49
2022/08/31 05:59:18;;;;;;;2.13;1.93;;;;;;;;;;5093151;28;20202;-50
2022/08/31 06:01:44;;;;;;;2.63;2.20;;;;;;;;;;5093015;28;20202;-47
2022/08/31 06:04:10;;;;;;;2.30;2.10;;;;;;;;;;5093145;28;20202;-50
2022/08/31 06:06:37;;;;;;;2.77;2.10;;;;;;;;;;5093024;28;20230;-47
2022/08/31 06:09:03;;;;;;;3.17;2.43;;;;;;;;;;5093105;28;20285;-49
2022/08/31 06:11:30;;;;;;;3.43;2.60;;;;;;;;;;5093188;28;20194;-47
2022/08/31 06:13:58;;;;;;;3.50;2.60;;;;;;;;;;5092741;28;20282;-47
2022/08/31 06:16:25;;;;;;;4.13;2.83;;;;;;;;;;5090605;28;20314;-49
2022/08/31 06:18:53;;;;;;;4.70;3.43;;;;;;;;;;5091386;28;20195;-49
2022/08/31 06:21:20;;;;;;;4.97;3.17;;;;;;;;;;5092071;28;20201;-47
2022/08/31 06:23:47;;;;;;;6.17;3.37;;;;;;;;;;5093189;28;20217;-47
2022/08/31 06:26:14;;;;;;;7.83;3.53;;;;;;;;;;5091475;28;20323;-47
2022/08/31 06:28:41;;;;;;;3.60;3.10;;;;;;;;;;5092192;28;20194;-47
2022/08/31 06:31:13;;;;;;;5.40;3.53;;;;;;;;;;5092098;28;20201;-48
2022/08/31 06:33:39;;;;;;;6.63;4.27;;;;;;;;;;5092148;28;20626;-47
2022/08/31 06:36:08;;;;;;;5.63;4.03;;;;;;;;;;5092082;28;20265;-48
2022/08/31 06:38:34;;;;;;;6.00;3.77;;;;;;;;;;5091430;28;20651;-47
2022/08/31 06:41:00;;;;;;;4.37;3.60;;;;;;;;;;5092293;28;20281;-48
2022/08/31 06:43:27;;;;;;;6.27;3.97;;;;;;;;;;5092037;28;20287;-47
2022/08/31 06:45:56;;;;;;;4.77;4.27;;;;;;;;;;5091640;28;20248;-49
2022/08/31 06:48:23;;;;;;;6.83;4.10;;;;;;;;;;5093268;28;20221;-48
2022/08/31 06:50:54;;;;;;;5.20;4.13;;;;;;;;;;5111636;28;20202;-50
2022/08/31 06:53:21;;;;;;;4.80;4.20;;;;;;;;;;5111312;28;20237;-50
2022/08/31 06:55:47;;;;;;;4.63;3.93;;;;;;;;;;5109988;28;20229;-49
2022/08/31 06:58:13;;;;;;;5.83;4.43;;;;;;;;;;5110054;28;20228;-49
2022/08/31 07:00:40;;;;;;;5.67;4.30;;;;;;;;;;5112258;28;20221;-49
2022/08/31 07:03:21;;;;;;;5.73;4.57;;;;;;;;;;5112160;28;20668;-49
2022/08/31 07:05:50;;;;;;;5.93;3.70;;;;;;;;;;5112276;28;20204;-48
2022/08/31 07:08:17;;;;;;;4.87;3.90;;;;;;;;;;5111718;28;20381;-47
2022/08/31 07:10:43;;;;;;;5.00;4.10;;;;;;;;;;5111451;28;20234;-48
2022/08/31 07:13:09;;;;;;;5.90;4.37;;;;;;;;;;5111120;28;20191;-48
2022/08/31 07:15:34;;;;;;;5.13;4.43;;;;;;;;;;5111999;28;20259;-49
2022/08/31 07:18:01;;;;;;;6.17;4.40;;;;;;;;;;5111029;28;20225;-48
2022/08/31 07:20:27;;;;;;;5.83;4.07;;;;;;;;;;5111112;28;20190;-48
2022/08/31 07:22:56;;;;;;;8.30;4.00;;;;;;;;;;5110877;28;20260;-48
2022/08/31 07:25:21;;;;;;;3.90;3.40;;;;;;;;;;5111749;28;20211;-47
2022/08/31 07:27:54;;;;;;;3.80;3.10;;;;;;;;;;5111753;28;20195;-48
2022/08/31 07:30:20;;;;;;;5.27;4.40;;;;;;;;;;5111689;28;20223;-47
2022/08/31 07:32:46;;;;;;;6.40;3.70;;;;;;;;;;5111058;28;20200;-49
2022/08/31 07:35:12;;;;;;;6.50;3.77;;;;;;;;;;5111905;28;20661;-48
2022/08/31 07:43:09;;;;;;;5.47;3.90;;;;;;;;;;5111284;28;20613;-48
2022/08/31 07:45:36;;;;;;;5.60;4.10;;;;;;;;;;5112039;28;20202;-48
2022/08/31 07:48:02;;;;;;;6.20;4.40;;;;;;;;;;5111028;28;20200;-48
2022/08/31 07:50:30;;;;;;;5.73;4.23;;;;;;;;;;5111055;28;20209;-48
2022/08/31 07:52:57;;;;;;;4.13;3.73;;;;;;;;;;5110265;28;20225;-50
2022/08/31 07:55:25;;;;;;;6.33;4.40;;;;;;;;;;5110058;28;20613;-48
2022/08/31 07:57:53;;;;;;;4.87;4.17;;;;;;;;;;5109151;28;20222;-48
2022/08/31 08:00:21;;;;;;;4.23;3.83;;;;;;;;;;5111696;28;20193;-48
2022/08/31 08:02:47;;;;;;;5.43;4.00;;;;;;;;;;5114155;28;20194;-48
2022/08/31 08:05:21;;;;;;;6.03;3.90;;;;;;;;;;5115171;28;20206;-48
2022/08/31 08:07:48;;;;;;;5.50;3.90;;;;;;;;;;5114041;28;20261;-48
2022/08/31 08:10:16;;;;;;;4.97;4.20;;;;;;;;;;5116361;28;20215;-48
2022/08/31 08:12:45;;;;;;;4.60;3.40;;;;;;;;;;5114766;28;20256;-48
2022/08/31 08:15:12;;;;;;;4.30;3.40;;;;;;;;;;5115160;28;20226;-48
2022/08/31 08:17:38;;;;;;;3.43;3.03;;;;;;;;;;5115869;28;20229;-48
2022/08/31 08:20:04;;;;;;;4.10;3.30;;;;;;;;;;5114866;28;20189;-48
2022/08/31 08:22:30;;;;;;;3.53;2.93;;;;;;;;;;5115349;28;20194;-48
2022/08/31 08:24:57;;;;;;;3.17;2.43;;;;;;;;;;5115296;28;20391;-48
2022/08/31 08:27:24;;;;;;;3.23;2.73;;;;;;;;;;5115710;28;20198;-47
2022/08/31 08:29:51;;;;;;;3.07;2.40;;;;;;;;;;5114813;28;20661;-47
2022/08/31 08:32:17;;;;;;;3.77;2.20;;;;;;;;;;5115619;28;20207;-48
2022/08/31 08:34:44;;;;;;;2.57;2.10;;;;;;;;;;5114749;28;20247;-48
2022/08/31 08:37:11;;;;;;;3.53;2.03;;;;;;;;;;5115204;28;20342;-48
2022/08/31 08:39:37;;;;;;;1.90;1.70;;;;;;;;;;5113048;28;20664;-48
2022/08/31 08:42:04;;;;;;;2.40;1.80;;;;;;;;;;5115142;28;20198;-47
2022/08/31 08:44:31;;;;;;;1.93;1.60;;;;;;;;;;5115449;28;20194;-47
2022/08/31 08:47:00;;;;;;;2.97;2.03;;;;;;;;;;5112925;28;20228;-48
2022/08/31 08:49:33;;;;;;;2.73;2.10;;;;;;;;;;5115703;28;20214;-47
2022/08/31 08:52:02;;;;;;;1.90;1.60;;;;;;;;;;5115609;28;20194;-46
2022/08/31 08:54:30;;;;;;;1.50;1.40;;;;;;;;;;5115753;28;20198;-51
2022/08/31 08:56:58;;;;;;;1.50;1.37;;;;;;;;;;5115327;28;20238;-47
2022/08/31 08:59:24;;;;;;;1.40;1.10;;;;;;;;;;5115485;28;20247;-46
2022/08/31 09:01:55;;;;;;;1.50;1.40;;;;;;;;;;5115393;28;20191;-48
2022/08/31 09:04:31;;;;;;;2.17;1.60;;;;;;;;;;5115425;28;20270;-48
2022/08/31 09:07:07;;;;;;;1.73;1.10;;;;;;;;;;5114948;28;20239;-49
2022/08/31 09:09:37;;;;;;;2.33;1.33;;;;;;;;;;5115518;28;20609;-47
2022/08/31 09:12:10;;;;;;;1.20;1.10;;;;;;;;;;5115018;28;20194;-47
2022/08/31 09:14:46;;;;;;;1.23;1.13;;;;;;;;;;5114713;28;20202;-48
2022/08/31 09:17:17;;;;;;;1.10;1.07;;;;;;;;;;5114722;28;20689;-48
2022/08/31 09:19:58;;;;;;;1.43;1.03;;;;;;;;;;5114979;28;20268;-48
2022/08/31 09:22:24;;;;;;;1.30;1.20;;;;;;;;;;5114913;28;20205;-48
2022/08/31 09:24:55;;;;;;;2.43;1.10;;;;;;;;;;5114156;28;20237;-48
2022/08/31 09:27:38;;;;;;;2.40;1.10;;;;;;;;;;5113245;28;20246;-48
2022/08/31 09:30:05;;;;;;;3.47;1.13;;;;;;;;;;5114353;28;20200;-48
2022/08/31 09:32:33;;;;;;;2.60;0.83;;;;;;;;;;5113919;28;20193;-48
2022/08/31 09:35:01;;;;;;;2.53;0.97;;;;;;;;;;5114064;28;20341;-48
2022/08/31 09:37:32;;;;;;;0.97;0.80;;;;;;;;;;5113888;28;20222;-47
2022/08/31 09:40:13;;;;;;;1.50;1.07;;;;;;;;;;5114027;28;20285;-47
2022/08/31 09:42:39;;;;;;;1.87;0.93;;;;;;;;;;5113681;28;20201;-49
2022/08/31 09:45:10;;;;;;;1.47;1.00;;;;;;;;;;5114042;28;20201;-48
2022/08/31 09:47:54;;;;;;;1.73;1.20;;;;;;;;;;5112488;28;20220;-48
2022/08/31 09:50:30;;;;;;;0.87;0.87;;;;;;;;;;5114116;28;20201;-48
2022/08/31 09:56:04;;;;;;;2.60;1.43;;;;;;;;;;5113984;28;20563;-48
2022/08/31 09:58:32;;;;;;;1.33;0.93;;;;;;;;;;5113937;28;20199;-47
2022/08/31 10:01:11;;;;;;;1.03;0.90;;;;;;;;;;5113893;28;20658;-48
2022/08/31 10:03:37;;;;;;;1.40;0.90;;;;;;;;;;5113831;28;20205;-48
2022/08/31 10:06:05;;;;;;;2.03;1.03;;;;;;;;;;5112452;28;20219;-47
2022/08/31 10:08:38;;;;;;;2.40;1.00;;;;;;;;;;5111773;28;20577;-48
2022/08/31 10:11:10;;;;;;;1.20;0.80;;;;;;;;;;5113503;28;20200;-47
2022/08/31 10:13:38;;;;;;;1.43;1.10;;;;;;;;;;5113390;28;20250;-48
2022/08/31 10:16:13;;;;;;;1.30;0.87;;;;;;;;;;5113253;28;20202;-47
2022/08/31 10:18:46;;;;;;;3.60;1.07;;;;;;;;;;5113370;28;20201;-48
2022/08/31 10:21:20;;;;;;;0.80;0.80;;;;;;;;;;5113017;28;20206;-49
2022/08/31 10:23:55;;;;;;;4.00;0.97;;;;;;;;;;5113215;28;20603;-48
2022/08/31 10:26:30;;;;;;;1.40;0.90;;;;;;;;;;5112717;28;20203;-48
2022/08/31 10:28:58;;;;;;;1.80;0.93;;;;;;;;;;5112354;28;20245;-48
2022/08/31 10:31:28;;;;;;;4.10;1.13;;;;;;;;;;5112953;28;20615;-48
2022/08/31 10:36:44;;;;;;;1.97;1.00;;;;;;;;;;5112510;28;20222;-47
2022/08/31 10:39:16;;;;;;;3.23;1.10;;;;;;;;;;5112842;28;20202;-48
2022/08/31 10:41:43;;;;;;;0.77;0.70;;;;;;;;;;5112097;28;20182;-48
2022/08/31 10:44:22;;;;;;;1.20;0.90;;;;;;;;;;5112768;28;20244;-49
2022/08/31 10:46:49;;;;;;;1.40;0.97;;;;;;;;;;5112702;28;20190;-48
2022/08/31 10:49:16;;;;;;;1.30;1.10;;;;;;;;;;5112675;28;20259;-47
2022/08/31 10:51:48;;;;;;;1.10;0.90;;;;;;;;;;5111764;28;20212;-48
2022/08/31 10:54:26;;;;;;;0.80;0.80;;;;;;;;;;5112698;28;20447;-48
2022/08/31 10:56:57;;;;;;;2.63;0.90;;;;;;;;;;5112222;28;20218;-48
2022/08/31 10:59:28;;;;;;;1.90;0.80;;;;;;;;;;5112926;28;20198;-47
2022/08/31 11:01:57;;;;;;;1.57;0.90;;;;;;;;;;5112637;28;20258;-47
2022/08/31 11:04:48;;;;;;;1.73;1.10;;;;;;;;;;5112816;28;20193;-48
2022/08/31 11:07:23;;;;;;;1.97;1.00;;;;;;;;;;5112443;28;20656;-48
2022/08/31 11:09:53;;;;;;;1.47;1.00;;;;;;;;;;5112469;28;20230;-47
2022/08/31 11:12:24;;;;;;;1.60;1.00;;;;;;;;;;5111764;28;20672;-47
2022/08/31 11:15:08;;;;;;;1.60;0.83;;;;;;;;;;5112313;28;20201;-47
2022/08/31 11:17:41;;;;;;;1.10;0.90;;;;;;;;;;5112404;28;20242;-47
2022/08/31 11:20:20;;;;;;;0.87;0.73;;;;;;;;;;5111849;28;20243;-48
2022/08/31 11:23:00;;;;;;;1.00;0.90;;;;;;;;;;5112517;28;20278;-48
2022/08/31 11:25:38;;;;;;;2.80;1.00;;;;;;;;;;5112354;28;20560;-48
2022/08/31 11:28:08;;;;;;;1.60;1.03;;;;;;;;;;5111099;28;20613;-47
2022/08/31 11:30:36;;;;;;;1.50;0.83;;;;;;;;;;5112088;28;20219;-47
2022/08/31 11:33:08;;;;;;;1.47;0.93;;;;;;;;;;5112079;28;20208;-48
2022/08/31 11:36:02;;;;;;;1.80;1.10;;;;;;;;;;5111785;28;20247;-48
2022/08/31 11:38:47;;;;;;;1.27;0.97;;;;;;;;;;5112353;28;20282;-48
2022/08/31 11:41:28;;;;;;;1.90;1.17;;;;;;;;;;5110924;28;20284;-48
2022/08/31 11:43:55;;;;;;;2.60;0.80;;;;;;;;;;5111864;28;20289;-48
2022/08/31 11:46:39;;;;;;;1.17;0.90;;;;;;;;;;5111695;28;20196;-48
2022/08/31 11:49:09;;;;;;;1.37;1.23;;;;;;;;;;5111682;28;20225;-47
2022/08/31 11:51:36;;;;;;;1.43;1.07;;;;;;;;;;5111653;28;20202;-48
2022/08/31 11:54:05;;;;;;;1.77;1.10;;;;;;;;;;5111847;28;20205;-48
2022/08/31 11:56:34;;;;;;;1.17;0.90;;;;;;;;;;5111701;28;20190;-48
2022/08/31 11:59:14;;;;;;;1.10;1.00;;;;;;;;;;5111344;28;20205;-49
2022/08/31 12:01:43;;;;;;;2.67;1.07;;;;;;;;;;5110587;28;20198;-49
2022/08/31 12:04:44;;;;;;;1.00;0.90;;;;;;;;;;5110529;28;20223;-48
2022/08/31 12:07:12;;;;;;;1.10;0.97;;;;;;;;;;5111329;28;20242;-48
2022/08/31 12:10:03;;;;;;;1.10;0.90;;;;;;;;;;5111591;28;20207;-50
2022/08/31 12:12:34;;;;;;;3.80;1.27;;;;;;;;;;5111406;28;20202;-46
2022/08/31 12:15:05;;;;;;;1.30;1.10;;;;;;;;;;5110843;28;20201;-47
2022/08/31 12:17:35;;;;;;;1.30;1.00;;;;;;;;;;5111012;28;20249;-47
2022/08/31 12:20:06;;;;;;;1.40;1.07;;;;;;;;;;5111627;28;20298;-48
2022/08/31 12:25:37;;;;;;;1.83;0.90;;;;;;;;;;5112111;28;20204;-48
2022/08/31 12:28:07;;;;;;;3.37;1.00;;;;;;;;;;5111923;28;20202;-48
2022/08/31 12:30:33;;;;;;;0.70;0.70;;;;;;;;;;5111962;28;20210;-48
2022/08/31 12:33:01;;;;;;;0.93;0.77;;;;;;;;;;5111000;28;20714;-47
2022/08/31 12:35:31;;;;;;;1.90;0.90;;;;;;;;;;5111084;28;20206;-47
2022/08/31 12:37:58;;;;;;;1.43;0.90;;;;;;;;;;5110780;28;20226;-48
2022/08/31 12:40:25;;;;;;;1.23;1.13;;;;;;;;;;5110588;28;20220;-48
2022/08/31 12:42:55;;;;;;;1.50;1.07;;;;;;;;;;5110927;28;20941;-48
2022/08/31 12:45:28;;;;;;;2.17;1.10;;;;;;;;;;5111249;28;20227;-48
2022/08/31 12:47:59;;;;;;;3.87;1.20;;;;;;;;;;5111553;28;20200;-48
2022/08/31 12:50:28;;;;;;;1.57;1.10;;;;;;;;;;5115328;28;20220;-49
2022/08/31 12:53:10;;;;;;;3.47;1.10;;;;;;;;;;5114967;28;20257;-48
2022/08/31 12:55:40;;;;;;;0.77;0.77;;;;;;;;;;5115194;28;20613;-48
2022/08/31 12:58:15;;;;;;;2.03;1.20;;;;;;;;;;5114709;28;20223;-48
2022/08/31 13:00:44;;;;;;;2.87;1.00;;;;;;;;;;5115062;28;20251;-49
2022/08/31 13:03:16;;;;;;;1.73;1.00;;;;;;;;;;5114673;28;20231;-49
2022/08/31 13:05:45;;;;;;;2.17;0.87;;;;;;;;;;5114797;28;20197;-48
2022/08/31 13:08:21;;;;;;;1.23;1.10;;;;;;;;;;5114289;28;20271;-49
2022/08/31 13:10:47;;;;;;;2.10;1.30;;;;;;;;;;5114772;28;20198;-49
2022/08/31 13:13:21;;;;;;;1.17;0.90;;;;;;;;;;5114364;28;20285;-49
2022/08/31 13:15:47;;;;;;;1.13;1.03;;;;;;;;;;5114551;28;20212;-48
2022/08/31 13:18:15;;;;;;;6.67;1.00;;;;;;;;;;5113537;28;20225;-48
2022/08/31 13:20:45;;;;;;;3.37;0.93;;;;;;;;;;5114490;28;20186;-48
2022/08/31 13:23:13;;;;;;;3.27;1.27;;;;;;;;;;5114191;28;20551;-47
2022/08/31 13:25:40;;;;;;;2.07;1.10;;;;;;;;;;5114071;28;20246;-48
2022/08/31 13:28:09;;;;;;;4.87;1.20;;;;;;;;;;5113607;28;20272;-48
2022/08/31 13:30:37;;;;;;;1.23;0.90;;;;;;;;;;5114547;28;20203;-49
2022/08/31 13:33:20;;;;;;;1.73;0.80;;;;;;;;;;5114102;28;20205;-48
2022/08/31 13:35:49;;;;;;;1.10;0.90;;;;;;;;;;5114560;28;20202;-48
2022/08/31 13:38:16;;;;;;;1.30;1.10;;;;;;;;;;5114107;28;20230;-48
2022/08/31 13:40:49;;;;;;;1.50;1.13;;;;;;;;;;5114224;28;20686;-48
2022/08/31 13:43:18;;;;;;;1.07;0.97;;;;;;;;;;5113769;28;20796;-48
2022/08/31 13:45:56;;;;;;;2.30;1.10;;;;;;;;;;5114371;28;20194;-48
2022/08/31 13:48:26;;;;;;;1.37;1.00;;;;;;;;;;5114007;28;20203;-48
2022/08/31 13:50:57;;;;;;;1.43;0.90;;;;;;;;;;5113971;28;20199;-49
2022/08/31 13:53:38;;;;;;;2.03;1.10;;;;;;;;;;5114175;28;20680;-48
2022/08/31 13:59:28;;;;;;;2.77;1.10;;;;;;;;;;5112918;28;20278;-48
2022/08/31 14:01:56;;;;;;;1.00;0.90;;;;;;;;;;5113945;28;20194;-48
2022/08/31 14:04:59;;;;;;;1.77;1.10;;;;;;;;;;5113860;28;20209;-48
2022/08/31 14:07:26;;;;;;;1.27;1.10;;;;;;;;;;5113516;28;20306;-49
2022/08/31 14:09:53;;;;;;;1.10;0.70;;;;;;;;;;5113773;28;20202;-49
2022/08/31 14:12:34;;;;;;;1.50;1.10;;;;;;;;;;5113592;28;20190;-48
2022/08/31 14:15:07;;;;;;;2.47;1.03;;;;;;;;;;5113324;28;20262;-48
2022/08/31 14:17:34;;;;;;;1.23;1.10;;;;;;;;;;5112967;28;20621;-48
2022/08/31 14:20:17;;;;;;;1.20;1.10;;;;;;;;;;5112960;28;20736;-48
2022/08/31 14:22:44;;;;;;;1.33;1.00;;;;;;;;;;5111908;28;20680;-47
2022/08/31 14:25:11;;;;;;;1.20;1.00;;;;;;;;;;5112630;28;20579;-48
2022/08/31 14:27:41;;;;;;;2.23;1.20;;;;;;;;;;5113165;28;20659;-48
2022/08/31 14:30:08;;;;;;;1.03;0.90;;;;;;;;;;5113004;28;20699;-48
2022/08/31 14:32:36;;;;;;;1.30;1.13;;;;;;;;;;5113017;28;20259;-47
2022/08/31 14:35:06;;;;;;;1.10;0.80;;;;;;;;;;5112364;28;20212;-47
2022/08/31 14:37:32;;;;;;;1.57;1.10;;;;;;;;;;5112878;28;20921;-47
2022/08/31 14:40:03;;;;;;;1.10;1.00;;;;;;;;;;5113111;28;20208;-49
2022/08/31 14:42:31;;;;;;;1.67;1.10;;;;;;;;;;5112969;28;20205;-48
2022/08/31 14:44:59;;;;;;;1.03;0.93;;;;;;;;;;5113046;28;20233;-48
2022/08/31 14:47:29;;;;;;;1.20;1.03;;;;;;;;;;5112849;28;20193;-48
2022/08/31 14:50:04;;;;;;;0.97;0.90;;;;;;;;;;5113053;28;20208;-48
2022/08/31 14:52:33;;;;;;;1.50;1.17;;;;;;;;;;5112826;28;20208;-47
2022/08/31 14:55:01;;;;;;;2.00;1.10;;;;;;;;;;5112943;28;20201;-47
2022/08/31 14:57:27;;;;;;;1.43;1.00;;;;;;;;;;5112343;28;20232;-48
2022/08/31 14:59:58;;;;;;;1.10;1.00;;;;;;;;;;5112660;28;20201;-48
2022/08/31 15:02:25;;;;;;;3.40;1.10;;;;;;;;;;5112780;28;20225;-47
2022/08/31 15:04:51;;;;;;;2.20;1.30;;;;;;;;;;5111840;28;20196;-48
2022/08/31 15:07:18;;;;;;;2.70;1.07;;;;;;;;;;5112274;28;20260;-49
2022/08/31 15:09:46;;;;;;;3.17;1.07;;;;;;;;;;5112607;28;20210;-48
2022/08/31 15:12:12;;;;;;;1.13;1.00;;;;;;;;;;5112093;28;20230;-48
2022/08/31 15:14:38;;;;;;;2.40;1.13;;;;;;;;;;5112275;28;20195;-48